F/V Ville Croisic 5 — FHZY — position and weather

sailwx.info

Track history (hours):
 
Tides and Currents Weather Stations Pressure Air Temp Water Temp Dewpoint Dewpoint Depression Visibility Wind Speed Wind Dir Waves Ship Positions

F/V Ville Croisic 5

Last reported at 2017-Sep-24 19:12 UTC. Time now 2017-Sep-25 13:37 UTC.
Position N 46°20' W 002°41'.

Length 21 m.

Type: Fishing. MMSI: 228920000.

Date/timePositionNaut miles runAvg speedWind from/ knotsBaromVisibWave heightAir tempDewpointWater temp
2017-Sep-24 19:12N 46°20' W 002°41'1 3.5
2017-Sep-24 18:51N 46°18' W 002°41'2 2.7
2017-Sep-24 18:10N 46°17' W 002°42'1 3.6
2017-Sep-24 17:57N 46°16' W 002°41'2 3.6
2017-Sep-24 17:23N 46°14' W 002°41'3 3.7
2017-Sep-24 16:35N 46°12' W 002°39'1 6.8
2017-Sep-24 16:27N 46°11' W 002°38'2 2.9
2017-Sep-24 15:52N 46°10' W 002°36'2 3.4
2017-Sep-24 15:20N 46°09' W 002°34'1 3.4
2017-Sep-24 15:00N 46°09' W 002°32'2 3.8
2017-Sep-24 14:29N 46°07' W 002°32'2 3.7
2017-Sep-24 13:57N 46°05' W 002°33'2 4.2
2017-Sep-24 13:30N 46°05' W 002°36'2 2.8
2017-Sep-24 12:50N 46°07' W 002°37'2 3.5
2017-Sep-24 12:24N 46°08' W 002°38'3 3.5
2017-Sep-24 11:38N 46°10' W 002°39'1 3.4
2017-Sep-24 11:21N 46°11' W 002°40'1 3.3
2017-Sep-24 11:00N 46°12' W 002°41'2 3.1
2017-Sep-24 10:29N 46°13' W 002°43'1 2.8
2017-Sep-24 10:00N 46°13' W 002°45'2 3.6
2017-Sep-24 09:25N 46°15' W 002°46'2 3.7
2017-Sep-24 09:00N 46°17' W 002°47'2 3.8
2017-Sep-24 08:27N 46°19' W 002°48'2 3.9
2017-Sep-24 08:00N 46°20' W 002°49'2 3.9
2017-Sep-24 07:24N 46°23' W 002°50'1 3.3
2017-Sep-24 07:00N 46°24' W 002°50'2 3.8
2017-Sep-24 06:29N 46°26' W 002°51'2 3.9
2017-Sep-24 06:00N 46°27' W 002°53'2 3.9
2017-Sep-24 05:30N 46°29' W 002°54'2 3.7
2017-Sep-24 05:00N 46°31' W 002°54'2 3.8
2017-Sep-24 04:30N 46°33' W 002°55'2 3.7
2017-Sep-24 04:00N 46°35' W 002°55'2 3.6
2017-Sep-24 03:30N 46°36' W 002°55'2 3.6
2017-Sep-24 02:59N 46°38' W 002°56'2 3.5
2017-Sep-24 02:30N 46°40' W 002°57'3 5.2
2017-Sep-24 02:01N 46°42' W 002°56'4 8.0
2017-Sep-24 01:29N 46°46' W 002°54'4 7.8
2017-Sep-24 01:00N 46°50' W 002°52'5 8.3
2017-Sep-24 00:21N 46°55' W 002°49'3 8.2
2017-Sep-23 23:56N 46°58' W 002°48'4 8.4
2017-Sep-23 23:30N 47°01' W 002°46'4 8.7
2017-Sep-23 23:00N 47°05' W 002°44'4 8.8
2017-Sep-23 22:30N 47°10' W 002°41'5 9.7
2017-Sep-23 22:00N 47°14' W 002°38'510.0
2017-Sep-23 21:30N 47°18' W 002°34'2 4.9
2017-Sep-23 21:00N 47°18' W 002°31'50 1.2
2017-Sep-22 02:01N 47°27' W 003°44'2 4.0
2017-Sep-22 01:30N 47°26' W 003°46'2 3.9
2017-Sep-22 01:00N 47°24' W 003°47'2 3.3
2017-Sep-22 00:30N 47°22' W 003°48'2 3.5
2017-Sep-22 00:01N 47°22' W 003°50'2 3.3
2017-Sep-21 23:30N 47°23' W 003°52'2 3.4
2017-Sep-21 23:00N 47°24' W 003°55'2 3.2
2017-Sep-21 22:28N 47°25' W 003°57'2 3.4
2017-Sep-21 21:55N 47°27' W 003°58'1 3.4
2017-Sep-21 21:28N 47°28' W 003°58'2 3.4
2017-Sep-21 21:01N 47°30' W 003°59'4 7.1
2017-Sep-21 20:27N 47°33' W 004°02'2 1.5
2017-Sep-21 18:50N 47°31' W 004°05'2 3.5
2017-Sep-21 18:24N 47°31' W 004°03'1 3.3
2017-Sep-21 18:00N 47°33' W 004°03'1 1.1
2017-Sep-21 16:45N 47°32' W 004°04'0 1.3
2017-Sep-21 16:29N 47°32' W 004°04'4 3.2
2017-Sep-21 15:16N 47°29' W 004°01'1 3.5
2017-Sep-21 15:00N 47°28' W 004°01'1 2.9
2017-Sep-21 14:30N 47°28' W 003°59'2 3.4
2017-Sep-21 13:57N 47°30' W 004°00'2 3.2
2017-Sep-21 13:19N 47°31' W 004°03'2 3.6
2017-Sep-21 12:49N 47°32' W 004°05'3 1.5
2017-Sep-21 10:33N 47°30' W 004°01'1 3.0
2017-Sep-21 10:07N 47°29' W 004°02'1 3.4
2017-Sep-21 09:49N 47°28' W 004°03'1 0.3
2017-Sep-21 05:13N 47°29' W 004°05'1 3.3
2017-Sep-21 04:55N 47°28' W 004°03'1 3.3
2017-Sep-21 04:29N 47°28' W 004°02'2 3.4
2017-Sep-21 03:59N 47°28' W 003°59'3 5.7
2017-Sep-21 03:30N 47°28' W 003°55'5 9.7
2017-Sep-21 03:00N 47°28' W 003°48'5 9.5
2017-Sep-21 02:30N 47°27' W 003°41'5 9.2
2017-Sep-21 02:00N 47°28' W 003°34'5 9.4
2017-Sep-21 01:30N 47°28' W 003°27'5 9.5
2017-Sep-21 01:01N 47°27' W 003°20'5 9.2
2017-Sep-21 00:31N 47°27' W 003°13'4 8.5
2017-Sep-21 00:01N 47°29' W 003°07'0 0.1
2017-Sep-20 23:31N 47°29' W 003°07'1 1.5
2017-Sep-20 23:00N 47°28' W 003°08'1 1.2
2017-Sep-20 22:30N 47°28' W 003°09'3 6.7
2017-Sep-20 22:00N 47°28' W 003°14'3 6.9
2017-Sep-20 21:30N 47°28' W 003°19'5 9.4
2017-Sep-20 21:00N 47°27' W 003°26'5 9.7
2017-Sep-20 20:31N 47°27' W 003°33'5 9.6
2017-Sep-20 20:00N 47°27' W 003°40'2 4.0
2017-Sep-20 19:30N 47°27' W 003°43'2 3.3
2017-Sep-20 19:00N 47°26' W 003°45'2 3.4
2017-Sep-20 18:27N 47°26' W 003°48'2 3.4
2017-Sep-20 18:00N 47°27' W 003°50'2 3.6
2017-Sep-20 17:30N 47°27' W 003°53'2 3.9
2017-Sep-20 17:01N 47°28' W 003°55'2 3.7
2017-Sep-20 16:27N 47°29' W 003°58'2 3.6
2017-Sep-20 16:00N 47°29' W 004°00'2 3.7
2017-Sep-20 15:30N 47°30' W 004°03'2 3.7
2017-Sep-20 14:57N 47°30' W 004°06'4 3.7
2017-Sep-20 13:57N 47°34' W 004°07'1 1.7
2017-Sep-20 13:24N 47°33' W 004°06'1 3.5
2017-Sep-20 12:59N 47°32' W 004°05'2 3.6
2017-Sep-20 12:30N 47°31' W 004°03'2 3.6
2017-Sep-20 12:00N 47°29' W 004°01'2 3.4
2017-Sep-20 11:24N 47°28' W 004°04'1 3.5
2017-Sep-20 11:00N 47°29' W 004°05'2 2.9
2017-Sep-20 10:28N 47°31' W 004°06'2 3.4
2017-Sep-20 10:00N 47°32' W 004°07'2 3.4
2017-Sep-20 09:25N 47°34' W 004°09'1 3.4
2017-Sep-20 09:00N 47°35' W 004°10'2 2.9
2017-Sep-20 08:23N 47°35' W 004°08'2 4.1
2017-Sep-20 08:00N 47°34' W 004°06'2 3.2
2017-Sep-20 07:26N 47°34' W 004°03'2 3.7
2017-Sep-20 07:00N 47°33' W 004°01'2 3.7
2017-Sep-20 06:30N 47°31' W 003°59'2 3.6
2017-Sep-20 05:48N 47°30' W 003°57'1 3.5
2017-Sep-20 05:27N 47°29' W 003°55'2 3.5
2017-Sep-20 05:01N 47°28' W 003°54'2 3.0
2017-Sep-20 04:29N 47°27' W 003°52'2 3.5
2017-Sep-20 04:00N 47°26' W 003°49'2 3.5
2017-Sep-20 03:30N 47°26' W 003°47'2 3.5
2017-Sep-20 03:00N 47°26' W 003°44'2 3.5
2017-Sep-20 02:30N 47°28' W 003°42'2 3.5
2017-Sep-20 02:00N 47°29' W 003°40'2 3.4
2017-Sep-20 01:30N 47°30' W 003°39'2 3.3
2017-Sep-20 01:00N 47°31' W 003°37'1 2.2
2017-Sep-20 00:30N 47°31' W 003°35'2 3.5
2017-Sep-20 00:00N 47°30' W 003°35'2 3.7
2017-Sep-19 23:31N 47°28' W 003°36'2 3.7
2017-Sep-19 23:00N 47°27' W 003°39'2 3.7
2017-Sep-19 22:30N 47°27' W 003°41'2 3.6
2017-Sep-19 22:00N 47°26' W 003°44'2 3.4
2017-Sep-19 21:30N 47°26' W 003°46'2 3.2
2017-Sep-19 21:01N 47°26' W 003°49'2 3.3
2017-Sep-19 20:29N 47°27' W 003°51'2 3.3
2017-Sep-19 20:01N 47°28' W 003°53'1 3.0
2017-Sep-19 19:30N 47°29' W 003°55'2 3.4
2017-Sep-19 19:00N 47°29' W 003°57'2 3.4
2017-Sep-19 18:30N 47°30' W 003°59'2 3.5
2017-Sep-19 18:00N 47°31' W 004°02'2 3.6
2017-Sep-19 17:29N 47°32' W 004°04'3 3.7
2017-Sep-19 16:43N 47°33' W 004°08'2 2.0
2017-Sep-19 15:42N 47°35' W 004°06'1 3.5
2017-Sep-19 15:25N 47°34' W 004°05'2 3.5
2017-Sep-19 14:55N 47°33' W 004°02'4 3.4
2017-Sep-19 13:47N 47°30' W 003°58'1 2.9
2017-Sep-19 13:30N 47°30' W 003°58'3 3.4
2017-Sep-19 12:40N 47°31' W 004°01'1 3.6
2017-Sep-19 12:27N 47°31' W 004°02'2 3.6
2017-Sep-19 12:00N 47°32' W 004°05'3 1.0
2017-Sep-19 08:56N 47°32' W 004°00'2 3.8
2017-Sep-19 08:30N 47°31' W 003°58'2 3.8
2017-Sep-19 08:00N 47°30' W 003°56'2 3.9
2017-Sep-19 07:29N 47°28' W 003°54'1 3.0
2017-Sep-19 07:00N 47°27' W 003°52'2 3.5
2017-Sep-19 06:30N 47°27' W 003°50'2 3.6
2017-Sep-19 05:59N 47°26' W 003°47'2 3.7
2017-Sep-19 05:30N 47°26' W 003°45'2 3.7
2017-Sep-19 05:00N 47°27' W 003°43'2 3.5
2017-Sep-19 04:30N 47°28' W 003°40'2 3.5
2017-Sep-19 04:01N 47°28' W 003°38'2 3.3
2017-Sep-19 03:31N 47°28' W 003°35'1 2.2
2017-Sep-19 03:00N 47°28' W 003°34'3 5.7
2017-Sep-19 02:30N 47°28' W 003°29'3 5.8
2017-Sep-19 02:01N 47°28' W 003°25'3 5.6
2017-Sep-19 01:30N 47°28' W 003°21'3 5.5
2017-Sep-19 01:00N 47°27' W 003°17'2 5.0
2017-Sep-19 00:31N 47°27' W 003°13'2 4.9
2017-Sep-19 00:01N 47°28' W 003°10'2 3.7
2017-Sep-18 23:31N 47°29' W 003°07'0 0.1
2017-Sep-18 23:00N 47°29' W 003°07'5 9.3
2017-Sep-18 22:31N 47°26' W 003°13'510.6
2017-Sep-18 22:00N 47°22' W 003°18'510.5
2017-Sep-18 21:30N 47°17' W 003°20'5 9.9
2017-Sep-18 21:01N 47°12' W 003°21'5 9.5
2017-Sep-18 20:30N 47°07' W 003°22'18 4.8
2017-Sep-18 16:47N 46°50' W 003°25'7 0.9
2017-Sep-18 08:57N 46°56' W 003°26'2 3.7
2017-Sep-18 08:20N 46°54' W 003°27'2 3.7
2017-Sep-18 07:51N 46°53' W 003°28'37 1.2
2017-Sep-16 23:33N 47°10' W 002°40'0 8.8
2017-Sep-16 23:30N 47°10' W 002°39'5 9.1
2017-Sep-16 23:00N 47°14' W 002°37'4 9.1
2017-Sep-16 22:30N 47°18' W 002°34'2 4.7
2017-Sep-16 22:00N 47°18' W 002°31'2 0.1
2017-Sep-15 23:44N 47°19' W 002°33'2 9.9
2017-Sep-15 23:30N 47°19' W 002°36'510.0
2017-Sep-15 23:00N 47°20' W 002°43'5 9.9
2017-Sep-15 22:30N 47°21' W 002°50'510.2
2017-Sep-15 22:00N 47°22' W 002°58'510.0
2017-Sep-15 21:30N 47°23' W 003°05'510.3
2017-Sep-15 21:00N 47°24' W 003°12'510.2
2017-Sep-15 20:30N 47°25' W 003°20'5 9.8
2017-Sep-15 20:00N 47°26' W 003°27'4 9.0
2017-Sep-15 19:31N 47°27' W 003°33'3 6.1
2017-Sep-15 19:00N 47°28' W 003°38'2 3.6
2017-Sep-15 18:30N 47°27' W 003°40'2 3.6
2017-Sep-15 18:00N 47°26' W 003°43'2 3.6
2017-Sep-15 17:30N 47°26' W 003°46'2 3.6
2017-Sep-15 17:00N 47°26' W 003°48'2 4.0
2017-Sep-15 16:30N 47°27' W 003°51'2 3.1
2017-Sep-15 16:00N 47°28' W 003°53'2 3.7
2017-Sep-15 15:30N 47°29' W 003°55'2 3.8
2017-Sep-15 14:54N 47°30' W 003°58'2 3.8
2017-Sep-15 14:30N 47°31' W 003°59'1 0.6
2017-Sep-15 12:31N 47°31' W 004°01'1 3.4
2017-Sep-15 12:15N 47°31' W 004°02'5 2.0
2017-Sep-15 09:51N 47°35' W 003°60'1 3.1
2017-Sep-15 09:24N 47°34' W 003°59'4 2.3
2017-Sep-15 07:43N 47°36' W 004°04'7 3.2
2017-Sep-15 05:32N 47°30' W 003°57'0 3.7
2017-Sep-15 05:30N 47°30' W 003°57'2 3.8
2017-Sep-15 05:00N 47°29' W 003°55'2 3.8
2017-Sep-15 04:30N 47°28' W 003°53'1 2.0
2017-Sep-15 04:00N 47°27' W 003°52'2 3.4
2017-Sep-15 03:29N 47°29' W 003°54'2 3.4
2017-Sep-15 03:00N 47°29' W 003°56'2 3.6
2017-Sep-15 02:30N 47°30' W 003°58'2 3.7
2017-Sep-15 02:00N 47°32' W 003°60'2 3.7
2017-Sep-15 01:29N 47°33' W 004°02'2 3.7
2017-Sep-15 01:00N 47°34' W 004°04'3 1.8
2017-Sep-14 23:20N 47°31' W 004°05'1 3.1
2017-Sep-14 22:57N 47°31' W 004°03'2 3.1
2017-Sep-14 22:20N 47°30' W 004°01'1 3.1
2017-Sep-14 21:54N 47°29' W 003°60'1 3.2
2017-Sep-14 21:30N 47°29' W 003°58'2 3.1
2017-Sep-14 21:00N 47°28' W 003°56'2 3.1
2017-Sep-14 20:30N 47°28' W 003°54'1 2.8
2017-Sep-14 20:00N 47°29' W 003°54'1 2.9
2017-Sep-14 19:30N 47°30' W 003°55'  
Track history (hours):
 
Tides and Currents Weather Stations Pressure Air Temp Water Temp Dewpoint Dewpoint Depression Visibility Wind Speed Wind Dir Waves Ship Positions

F/V Ville Croisic 5

Last reported at 2017-Sep-24 19:12 UTC. Time now 2017-Sep-25 13:37 UTC.
Position N 46°20' W 002°41'.

Length 21 m.

Type: Fishing. MMSI: 228920000.

Date/timePositionNaut miles runAvg speedWind from/ knotsBaromVisibWave heightAir tempDewpointWater temp
2017-Sep-24 19:12N 46°20' W 002°41'1 3.5
2017-Sep-24 18:51N 46°18' W 002°41'2 2.7
2017-Sep-24 18:10N 46°17' W 002°42'1 3.6
2017-Sep-24 17:57N 46°16' W 002°41'2 3.6
2017-Sep-24 17:23N 46°14' W 002°41'3 3.7
2017-Sep-24 16:35N 46°12' W 002°39'1 6.8
2017-Sep-24 16:27N 46°11' W 002°38'2 2.9
2017-Sep-24 15:52N 46°10' W 002°36'2 3.4
2017-Sep-24 15:20N 46°09' W 002°34'1 3.4
2017-Sep-24 15:00N 46°09' W 002°32'2 3.8
2017-Sep-24 14:29N 46°07' W 002°32'2 3.7
2017-Sep-24 13:57N 46°05' W 002°33'2 4.2
2017-Sep-24 13:30N 46°05' W 002°36'2 2.8
2017-Sep-24 12:50N 46°07' W 002°37'2 3.5
2017-Sep-24 12:24N 46°08' W 002°38'3 3.5
2017-Sep-24 11:38N 46°10' W 002°39'1 3.4
2017-Sep-24 11:21N 46°11' W 002°40'1 3.3
2017-Sep-24 11:00N 46°12' W 002°41'2 3.1
2017-Sep-24 10:29N 46°13' W 002°43'1 2.8
2017-Sep-24 10:00N 46°13' W 002°45'2 3.6
2017-Sep-24 09:25N 46°15' W 002°46'2 3.7
2017-Sep-24 09:00N 46°17' W 002°47'2 3.8
2017-Sep-24 08:27N 46°19' W 002°48'2 3.9
2017-Sep-24 08:00N 46°20' W 002°49'2 3.9
2017-Sep-24 07:24N 46°23' W 002°50'1 3.3
2017-Sep-24 07:00N 46°24' W 002°50'2 3.8
2017-Sep-24 06:29N 46°26' W 002°51'2 3.9
2017-Sep-24 06:00N 46°27' W 002°53'2 3.9
2017-Sep-24 05:30N 46°29' W 002°54'2 3.7
2017-Sep-24 05:00N 46°31' W 002°54'2 3.8
2017-Sep-24 04:30N 46°33' W 002°55'2 3.7
2017-Sep-24 04:00N 46°35' W 002°55'2 3.6
2017-Sep-24 03:30N 46°36' W 002°55'2 3.6
2017-Sep-24 02:59N 46°38' W 002°56'2 3.5
2017-Sep-24 02:30N 46°40' W 002°57'3 5.2
2017-Sep-24 02:01N 46°42' W 002°56'4 8.0
2017-Sep-24 01:29N 46°46' W 002°54'4 7.8
2017-Sep-24 01:00N 46°50' W 002°52'5 8.3
2017-Sep-24 00:21N 46°55' W 002°49'3 8.2
2017-Sep-23 23:56N 46°58' W 002°48'4 8.4
2017-Sep-23 23:30N 47°01' W 002°46'4 8.7
2017-Sep-23 23:00N 47°05' W 002°44'4 8.8
2017-Sep-23 22:30N 47°10' W 002°41'5 9.7
2017-Sep-23 22:00N 47°14' W 002°38'510.0
2017-Sep-23 21:30N 47°18' W 002°34'2 4.9
2017-Sep-23 21:00N 47°18' W 002°31'50 1.2
2017-Sep-22 02:01N 47°27' W 003°44'2 4.0
2017-Sep-22 01:30N 47°26' W 003°46'2 3.9
2017-Sep-22 01:00N 47°24' W 003°47'2 3.3
2017-Sep-22 00:30N 47°22' W 003°48'2 3.5
2017-Sep-22 00:01N 47°22' W 003°50'2 3.3
2017-Sep-21 23:30N 47°23' W 003°52'2 3.4
2017-Sep-21 23:00N 47°24' W 003°55'2 3.2
2017-Sep-21 22:28N 47°25' W 003°57'2 3.4
2017-Sep-21 21:55N 47°27' W 003°58'1 3.4
2017-Sep-21 21:28N 47°28' W 003°58'2 3.4
2017-Sep-21 21:01N 47°30' W 003°59'4 7.1
2017-Sep-21 20:27N 47°33' W 004°02'2 1.5
2017-Sep-21 18:50N 47°31' W 004°05'2 3.5
2017-Sep-21 18:24N 47°31' W 004°03'1 3.3
2017-Sep-21 18:00N 47°33' W 004°03'1 1.1
2017-Sep-21 16:45N 47°32' W 004°04'0 1.3
2017-Sep-21 16:29N 47°32' W 004°04'4 3.2
2017-Sep-21 15:16N 47°29' W 004°01'1 3.5
2017-Sep-21 15:00N 47°28' W 004°01'1 2.9
2017-Sep-21 14:30N 47°28' W 003°59'2 3.4
2017-Sep-21 13:57N 47°30' W 004°00'2 3.2
2017-Sep-21 13:19N 47°31' W 004°03'2 3.6
2017-Sep-21 12:49N 47°32' W 004°05'3 1.5
2017-Sep-21 10:33N 47°30' W 004°01'1 3.0
2017-Sep-21 10:07N 47°29' W 004°02'1 3.4
2017-Sep-21 09:49N 47°28' W 004°03'1 0.3
2017-Sep-21 05:13N 47°29' W 004°05'1 3.3
2017-Sep-21 04:55N 47°28' W 004°03'1 3.3
2017-Sep-21 04:29N 47°28' W 004°02'2 3.4
2017-Sep-21 03:59N 47°28' W 003°59'3 5.7
2017-Sep-21 03:30N 47°28' W 003°55'5 9.7
2017-Sep-21 03:00N 47°28' W 003°48'5 9.5
2017-Sep-21 02:30N 47°27' W 003°41'5 9.2
2017-Sep-21 02:00N 47°28' W 003°34'5 9.4
2017-Sep-21 01:30N 47°28' W 003°27'5 9.5
2017-Sep-21 01:01N 47°27' W 003°20'5 9.2
2017-Sep-21 00:31N 47°27' W 003°13'4 8.5
2017-Sep-21 00:01N 47°29' W 003°07'0 0.1
2017-Sep-20 23:31N 47°29' W 003°07'1 1.5
2017-Sep-20 23:00N 47°28' W 003°08'1 1.2
2017-Sep-20 22:30N 47°28' W 003°09'3 6.7
2017-Sep-20 22:00N 47°28' W 003°14'3 6.9
2017-Sep-20 21:30N 47°28' W 003°19'5 9.4
2017-Sep-20 21:00N 47°27' W 003°26'5 9.7
2017-Sep-20 20:31N 47°27' W 003°33'5 9.6
2017-Sep-20 20:00N 47°27' W 003°40'2 4.0
2017-Sep-20 19:30N 47°27' W 003°43'2 3.3
2017-Sep-20 19:00N 47°26' W 003°45'2 3.4
2017-Sep-20 18:27N 47°26' W 003°48'2 3.4
2017-Sep-20 18:00N 47°27' W 003°50'2 3.6
2017-Sep-20 17:30N 47°27' W 003°53'2 3.9
2017-Sep-20 17:01N 47°28' W 003°55'2 3.7
2017-Sep-20 16:27N 47°29' W 003°58'2 3.6
2017-Sep-20 16:00N 47°29' W 004°00'2 3.7
2017-Sep-20 15:30N 47°30' W 004°03'2 3.7
2017-Sep-20 14:57N 47°30' W 004°06'4 3.7
2017-Sep-20 13:57N 47°34' W 004°07'1 1.7
2017-Sep-20 13:24N 47°33' W 004°06'1 3.5
2017-Sep-20 12:59N 47°32' W 004°05'2 3.6
2017-Sep-20 12:30N 47°31' W 004°03'2 3.6
2017-Sep-20 12:00N 47°29' W 004°01'2 3.4
2017-Sep-20 11:24N 47°28' W 004°04'1 3.5
2017-Sep-20 11:00N 47°29' W 004°05'2 2.9
2017-Sep-20 10:28N 47°31' W 004°06'2 3.4
2017-Sep-20 10:00N 47°32' W 004°07'2 3.4
2017-Sep-20 09:25N 47°34' W 004°09'1 3.4
2017-Sep-20 09:00N 47°35' W 004°10'2 2.9
2017-Sep-20 08:23N 47°35' W 004°08'2 4.1
2017-Sep-20 08:00N 47°34' W 004°06'2 3.2
2017-Sep-20 07:26N 47°34' W 004°03'2 3.7
2017-Sep-20 07:00N 47°33' W 004°01'2 3.7
2017-Sep-20 06:30N 47°31' W 003°59'2 3.6
2017-Sep-20 05:48N 47°30' W 003°57'1 3.5
2017-Sep-20 05:27N 47°29' W 003°55'2 3.5
2017-Sep-20 05:01N 47°28' W 003°54'2 3.0
2017-Sep-20 04:29N 47°27' W 003°52'2 3.5
2017-Sep-20 04:00N 47°26' W 003°49'2 3.5
2017-Sep-20 03:30N 47°26' W 003°47'2 3.5
2017-Sep-20 03:00N 47°26' W 003°44'2 3.5
2017-Sep-20 02:30N 47°28' W 003°42'2 3.5
2017-Sep-20 02:00N 47°29' W 003°40'2 3.4
2017-Sep-20 01:30N 47°30' W 003°39'2 3.3
2017-Sep-20 01:00N 47°31' W 003°37'1 2.2
2017-Sep-20 00:30N 47°31' W 003°35'2 3.5
2017-Sep-20 00:00N 47°30' W 003°35'2 3.7
2017-Sep-19 23:31N 47°28' W 003°36'2 3.7
2017-Sep-19 23:00N 47°27' W 003°39'2 3.7
2017-Sep-19 22:30N 47°27' W 003°41'2 3.6
2017-Sep-19 22:00N 47°26' W 003°44'2 3.4
2017-Sep-19 21:30N 47°26' W 003°46'2 3.2
2017-Sep-19 21:01N 47°26' W 003°49'2 3.3
2017-Sep-19 20:29N 47°27' W 003°51'2 3.3
2017-Sep-19 20:01N 47°28' W 003°53'1 3.0
2017-Sep-19 19:30N 47°29' W 003°55'2 3.4
2017-Sep-19 19:00N 47°29' W 003°57'2 3.4
2017-Sep-19 18:30N 47°30' W 003°59'2 3.5
2017-Sep-19 18:00N 47°31' W 004°02'2 3.6
2017-Sep-19 17:29N 47°32' W 004°04'3 3.7
2017-Sep-19 16:43N 47°33' W 004°08'2 2.0
2017-Sep-19 15:42N 47°35' W 004°06'1 3.5
2017-Sep-19 15:25N 47°34' W 004°05'2 3.5
2017-Sep-19 14:55N 47°33' W 004°02'4 3.4
2017-Sep-19 13:47N 47°30' W 003°58'1 2.9
2017-Sep-19 13:30N 47°30' W 003°58'3 3.4
2017-Sep-19 12:40N 47°31' W 004°01'1 3.6
2017-Sep-19 12:27N 47°31' W 004°02'2 3.6
2017-Sep-19 12:00N 47°32' W 004°05'3 1.0
2017-Sep-19 08:56N 47°32' W 004°00'2 3.8
2017-Sep-19 08:30N 47°31' W 003°58'2 3.8
2017-Sep-19 08:00N 47°30' W 003°56'2 3.9
2017-Sep-19 07:29N 47°28' W 003°54'1 3.0
2017-Sep-19 07:00N 47°27' W 003°52'2 3.5
2017-Sep-19 06:30N 47°27' W 003°50'2 3.6
2017-Sep-19 05:59N 47°26' W 003°47'2 3.7
2017-Sep-19 05:30N 47°26' W 003°45'2 3.7
2017-Sep-19 05:00N 47°27' W 003°43'2 3.5
2017-Sep-19 04:30N 47°28' W 003°40'2 3.5
2017-Sep-19 04:01N 47°28' W 003°38'2 3.3
2017-Sep-19 03:31N 47°28' W 003°35'1 2.2
2017-Sep-19 03:00N 47°28' W 003°34'3 5.7
2017-Sep-19 02:30N 47°28' W 003°29'3 5.8
2017-Sep-19 02:01N 47°28' W 003°25'3 5.6
2017-Sep-19 01:30N 47°28' W 003°21'3 5.5
2017-Sep-19 01:00N 47°27' W 003°17'2 5.0
2017-Sep-19 00:31N 47°27' W 003°13'2 4.9
2017-Sep-19 00:01N 47°28' W 003°10'2 3.7
2017-Sep-18 23:31N 47°29' W 003°07'0 0.1
2017-Sep-18 23:00N 47°29' W 003°07'5 9.3
2017-Sep-18 22:31N 47°26' W 003°13'510.6
2017-Sep-18 22:00N 47°22' W 003°18'510.5
2017-Sep-18 21:30N 47°17' W 003°20'5 9.9
2017-Sep-18 21:01N 47°12' W 003°21'5 9.5
2017-Sep-18 20:30N 47°07' W 003°22'18 4.8
2017-Sep-18 16:47N 46°50' W 003°25'7 0.9
2017-Sep-18 08:57N 46°56' W 003°26'2 3.7
2017-Sep-18 08:20N 46°54' W 003°27'2 3.7
2017-Sep-18 07:51N 46°53' W 003°28'37 1.2
2017-Sep-16 23:33N 47°10' W 002°40'0 8.8
2017-Sep-16 23:30N 47°10' W 002°39'5 9.1
2017-Sep-16 23:00N 47°14' W 002°37'4 9.1
2017-Sep-16 22:30N 47°18' W 002°34'2 4.7
2017-Sep-16 22:00N 47°18' W 002°31'2 0.1
2017-Sep-15 23:44N 47°19' W 002°33'2 9.9
2017-Sep-15 23:30N 47°19' W 002°36'510.0
2017-Sep-15 23:00N 47°20' W 002°43'5 9.9
2017-Sep-15 22:30N 47°21' W 002°50'510.2
2017-Sep-15 22:00N 47°22' W 002°58'510.0
2017-Sep-15 21:30N 47°23' W 003°05'510.3
2017-Sep-15 21:00N 47°24' W 003°12'510.2
2017-Sep-15 20:30N 47°25' W 003°20'5 9.8
2017-Sep-15 20:00N 47°26' W 003°27'4 9.0
2017-Sep-15 19:31N 47°27' W 003°33'3 6.1
2017-Sep-15 19:00N 47°28' W 003°38'2 3.6
2017-Sep-15 18:30N 47°27' W 003°40'2 3.6
2017-Sep-15 18:00N 47°26' W 003°43'2 3.6
2017-Sep-15 17:30N 47°26' W 003°46'2 3.6
2017-Sep-15 17:00N 47°26' W 003°48'2 4.0
2017-Sep-15 16:30N 47°27' W 003°51'2 3.1
2017-Sep-15 16:00N 47°28' W 003°53'2 3.7
2017-Sep-15 15:30N 47°29' W 003°55'2 3.8
2017-Sep-15 14:54N 47°30' W 003°58'2 3.8
2017-Sep-15 14:30N 47°31' W 003°59'1 0.6
2017-Sep-15 12:31N 47°31' W 004°01'1 3.4
2017-Sep-15 12:15N 47°31' W 004°02'5 2.0
2017-Sep-15 09:51N 47°35' W 003°60'1 3.1
2017-Sep-15 09:24N 47°34' W 003°59'4 2.3
2017-Sep-15 07:43N 47°36' W 004°04'7 3.2
2017-Sep-15 05:32N 47°30' W 003°57'0 3.7
2017-Sep-15 05:30N 47°30' W 003°57'2 3.8
2017-Sep-15 05:00N 47°29' W 003°55'2 3.8
2017-Sep-15 04:30N 47°28' W 003°53'1 2.0
2017-Sep-15 04:00N 47°27' W 003°52'2 3.4
2017-Sep-15 03:29N 47°29' W 003°54'2 3.4
2017-Sep-15 03:00N 47°29' W 003°56'2 3.6
2017-Sep-15 02:30N 47°30' W 003°58'2 3.7
2017-Sep-15 02:00N 47°32' W 003°60'2 3.7
2017-Sep-15 01:29N 47°33' W 004°02'2 3.7
2017-Sep-15 01:00N 47°34' W 004°04'3 1.8
2017-Sep-14 23:20N 47°31' W 004°05'1 3.1
2017-Sep-14 22:57N 47°31' W 004°03'2 3.1
2017-Sep-14 22:20N 47°30' W 004°01'1 3.1
2017-Sep-14 21:54N 47°29' W 003°60'1 3.2
2017-Sep-14 21:30N 47°29' W 003°58'2 3.1
2017-Sep-14 21:00N 47°28' W 003°56'2 3.1
2017-Sep-14 20:30N 47°28' W 003°54'1 2.8
2017-Sep-14 20:00N 47°29' W 003°54'1 2.9
2017-Sep-14 19:30N 47°30' W 003°55'  

Dump ship's entire track history